createdAt,value
2017-09-08T00:00:32.552Z,0
2017-09-08T00:01:33.128Z,0
2017-09-08T00:02:33.701Z,0
2017-09-08T00:03:34.285Z,0
2017-09-08T00:04:34.860Z,0
2017-09-08T00:05:35.433Z,0
2017-09-08T00:06:36.008Z,0
2017-09-08T00:07:36.581Z,0
2017-09-08T00:08:37.156Z,0
2017-09-08T00:09:37.730Z,0
2017-09-08T00:10:38.307Z,0
2017-09-08T00:11:38.878Z,0
2017-09-08T00:12:39.452Z,0
2017-09-08T00:13:40.037Z,0
2017-09-08T00:14:40.614Z,0
2017-09-08T00:15:41.186Z,0
2017-09-08T00:16:41.766Z,0
2017-09-08T00:17:42.332Z,0
2017-09-08T00:18:42.906Z,0
2017-09-08T00:19:43.478Z,0
2017-09-08T00:20:44.052Z,0
2017-09-08T00:21:44.626Z,0
2017-09-08T00:22:45.199Z,0
2017-09-08T00:23:45.772Z,0
2017-09-08T00:24:46.351Z,0
2017-09-08T00:25:46.919Z,0
2017-09-08T00:26:47.503Z,0
2017-09-08T00:27:48.078Z,0
2017-09-08T00:28:48.651Z,0
2017-09-08T00:29:49.226Z,0
2017-09-08T00:30:49.810Z,0
2017-09-08T00:31:50.385Z,0
2017-09-08T00:32:50.959Z,0
2017-09-08T00:33:51.533Z,0
2017-09-08T00:34:52.108Z,0
2017-09-08T00:35:52.682Z,0
2017-09-08T00:36:53.256Z,0
2017-09-08T00:37:53.829Z,0
2017-09-08T00:38:54.403Z,0
2017-09-08T00:39:54.976Z,0
2017-09-08T00:40:55.550Z,0
2017-09-08T00:41:56.122Z,0
2017-09-08T00:42:56.695Z,0
2017-09-08T00:43:57.280Z,0
2017-09-08T00:44:57.854Z,0
2017-09-08T00:45:58.427Z,0
2017-09-08T00:46:59.000Z,0
2017-09-08T00:47:59.575Z,0
2017-09-08T00:49:00.148Z,0
2017-09-08T00:50:00.721Z,0
2017-09-08T00:51:01.294Z,0
2017-09-08T00:52:01.866Z,0
2017-09-08T00:53:02.439Z,0
2017-09-08T00:54:03.013Z,0
2017-09-08T00:55:03.587Z,0
2017-09-08T00:56:04.160Z,0
2017-09-08T00:57:04.734Z,0
2017-09-08T00:58:05.308Z,0
2017-09-08T00:59:05.882Z,0
2017-09-08T01:00:06.465Z,0
2017-09-08T01:01:07.039Z,0
2017-09-08T01:02:07.613Z,0
2017-09-08T01:03:08.186Z,0
2017-09-08T01:04:08.758Z,0
2017-09-08T01:05:09.331Z,0
2017-09-08T01:06:09.907Z,0
2017-09-08T01:07:10.480Z,0
2017-09-08T01:08:11.053Z,0
2017-09-08T01:09:11.626Z,0
2017-09-08T01:10:12.201Z,0
2017-09-08T01:11:12.777Z,0
2017-09-08T01:12:13.350Z,0
2017-09-08T01:13:13.924Z,0
2017-09-08T01:14:14.496Z,0
2017-09-08T01:15:15.080Z,0
2017-09-08T01:16:15.656Z,0
2017-09-08T01:17:16.231Z,0
2017-09-08T01:18:16.805Z,0
2017-09-08T01:19:17.378Z,0
2017-09-08T01:20:17.951Z,0
2017-09-08T01:21:18.524Z,0
2017-09-08T01:22:19.096Z,0
2017-09-08T01:23:19.685Z,0
2017-09-08T01:24:20.253Z,0
2017-09-08T01:25:20.827Z,0
2017-09-08T01:26:21.400Z,0
2017-09-08T01:27:21.973Z,0
2017-09-08T01:28:22.546Z,0
2017-09-08T01:29:23.121Z,0
2017-09-08T01:30:23.694Z,0
2017-09-08T01:31:24.268Z,0
2017-09-08T01:32:24.840Z,0
2017-09-08T01:33:25.413Z,0
2017-09-08T01:34:25.986Z,0
2017-09-08T01:35:26.564Z,0
2017-09-08T01:36:27.135Z,0
2017-09-08T01:37:27.708Z,0
2017-09-08T01:38:28.284Z,0
2017-09-08T01:39:28.857Z,0
2017-09-08T01:40:29.432Z,0
2017-09-08T01:41:30.004Z,0
2017-09-08T01:42:30.577Z,0
2017-09-08T01:43:31.149Z,0
2017-09-08T01:44:31.723Z,0
2017-09-08T01:45:32.295Z,0
2017-09-08T01:46:32.867Z,0
2017-09-08T01:47:33.439Z,0
2017-09-08T01:48:34.013Z,0
2017-09-08T01:49:34.585Z,0
2017-09-08T01:50:35.159Z,0
2017-09-08T01:51:35.732Z,0
2017-09-08T01:52:36.306Z,0
2017-09-08T01:53:36.880Z,0
2017-09-08T01:54:37.467Z,0
2017-09-08T01:55:38.048Z,0
2017-09-08T01:56:38.622Z,0
2017-09-08T01:57:39.196Z,0
2017-09-08T01:58:39.769Z,0
2017-09-08T01:59:40.342Z,0
2017-09-08T02:00:40.916Z,0
2017-09-08T02:01:41.493Z,0
2017-09-08T02:02:42.063Z,0
2017-09-08T02:03:42.634Z,0
2017-09-08T02:04:43.218Z,0
2017-09-08T02:05:43.793Z,0
2017-09-08T02:06:44.366Z,0
2017-09-08T02:07:44.940Z,0
2017-09-08T02:08:45.513Z,0
2017-09-08T02:09:46.085Z,0
2017-09-08T02:10:46.659Z,0
2017-09-08T02:11:47.232Z,0
2017-09-08T02:12:47.808Z,0
2017-09-08T02:13:48.377Z,0
2017-09-08T02:14:48.952Z,0
2017-09-08T02:15:49.524Z,0
2017-09-08T02:16:50.097Z,0
2017-09-08T02:17:50.670Z,0
2017-09-08T02:18:51.245Z,0
2017-09-08T02:19:51.817Z,0
2017-09-08T02:20:52.391Z,0
2017-09-08T02:21:52.966Z,0
2017-09-08T02:22:53.541Z,0
2017-09-08T02:23:54.125Z,0
2017-09-08T02:24:54.700Z,0
2017-09-08T02:25:55.274Z,0
2017-09-08T02:26:55.849Z,0
2017-09-08T02:27:56.426Z,0
2017-09-08T02:28:57.009Z,0
2017-09-08T02:29:57.582Z,0
2017-09-08T02:30:58.156Z,0
2017-09-08T02:31:58.730Z,0
2017-09-08T02:32:59.306Z,0
2017-09-08T02:33:59.889Z,0
2017-09-08T02:35:00.464Z,0
2017-09-08T02:36:01.039Z,0
2017-09-08T02:37:01.624Z,0
2017-09-08T02:38:02.198Z,0
2017-09-08T02:39:02.773Z,0
2017-09-08T02:40:03.348Z,0
2017-09-08T02:41:03.921Z,0
2017-09-08T02:42:04.496Z,0
2017-09-08T02:43:05.080Z,0
2017-09-08T02:44:05.655Z,0
2017-09-08T02:45:06.229Z,0
2017-09-08T02:46:06.806Z,0
2017-09-08T02:47:07.377Z,0
2017-09-08T02:48:07.952Z,0
2017-09-08T02:49:08.525Z,0
2017-09-08T02:50:09.098Z,0
2017-09-08T02:51:09.670Z,0
2017-09-08T02:52:10.248Z,0
2017-09-08T02:53:10.817Z,0
2017-09-08T02:54:11.389Z,0
2017-09-08T02:55:11.962Z,0
2017-09-08T02:56:12.534Z,0
2017-09-08T02:57:13.108Z,0
2017-09-08T02:58:13.691Z,0
2017-09-08T02:59:14.275Z,0
2017-09-08T03:00:14.839Z,0
2017-09-08T03:01:15.413Z,0
2017-09-08T03:02:15.987Z,0
2017-09-08T03:03:16.559Z,0
2017-09-08T03:04:17.133Z,0
2017-09-08T03:05:17.705Z,0
2017-09-08T03:06:18.285Z,0
2017-09-08T03:07:18.852Z,0
2017-09-08T03:08:19.427Z,0
2017-09-08T03:09:20.000Z,0
2017-09-08T03:10:20.584Z,0
2017-09-08T03:11:21.158Z,0
2017-09-08T03:12:21.732Z,0
2017-09-08T03:13:22.304Z,0
2017-09-08T03:14:22.883Z,0
2017-09-08T03:15:23.453Z,0
2017-09-08T03:16:24.026Z,0
2017-09-08T03:17:24.599Z,0
2017-09-08T03:18:25.174Z,0
2017-09-08T03:19:25.748Z,0
2017-09-08T03:20:26.326Z,0
2017-09-08T03:21:26.895Z,0
2017-09-08T03:22:27.470Z,0
2017-09-08T03:23:28.041Z,0
2017-09-08T03:24:28.615Z,0
2017-09-08T03:25:29.199Z,0
2017-09-08T03:26:29.774Z,0
2017-09-08T03:27:30.346Z,0
2017-09-08T03:28:30.921Z,0
2017-09-08T03:29:31.493Z,0
2017-09-08T03:30:32.069Z,0
2017-09-08T03:31:32.651Z,0
2017-09-08T03:32:33.225Z,0
2017-09-08T03:33:33.801Z,0
2017-09-08T03:34:34.375Z,0
2017-09-08T03:35:34.948Z,0
2017-09-08T03:36:35.521Z,0
2017-09-08T03:37:36.095Z,0
2017-09-08T03:38:36.667Z,0
2017-09-08T03:39:37.244Z,0
2017-09-08T03:40:37.823Z,0
2017-09-08T03:41:38.398Z,0
2017-09-08T03:42:38.972Z,0
2017-09-08T03:43:39.544Z,0
2017-09-08T03:44:40.118Z,0
2017-09-08T03:45:40.690Z,0
2017-09-08T03:46:41.273Z,0
2017-09-08T03:47:41.864Z,0
2017-09-08T03:48:42.441Z,0
2017-09-08T03:49:43.014Z,0
2017-09-08T03:50:43.591Z,0
2017-09-08T03:51:44.165Z,0
2017-09-08T03:52:44.739Z,0
2017-09-08T03:53:45.311Z,0
2017-09-08T03:54:45.884Z,0
2017-09-08T03:55:46.457Z,0
2017-09-08T03:56:47.028Z,0
2017-09-08T03:57:47.601Z,0
2017-09-08T03:58:48.173Z,0
2017-09-08T03:59:48.744Z,0
2017-09-08T04:00:49.317Z,0
2017-09-08T04:01:49.890Z,0
2017-09-08T04:02:50.462Z,0
2017-09-08T04:03:51.036Z,0
2017-09-08T04:04:51.609Z,0
2017-09-08T04:05:52.192Z,0
2017-09-08T04:06:52.766Z,0
2017-09-08T04:07:53.350Z,0
2017-09-08T04:08:53.923Z,0
2017-09-08T04:09:54.497Z,0
2017-09-08T04:10:55.072Z,0
2017-09-08T04:11:55.645Z,0
2017-09-08T04:12:56.221Z,0
2017-09-08T04:13:56.793Z,0
2017-09-08T04:14:57.366Z,0
2017-09-08T04:15:57.949Z,0
2017-09-08T04:16:58.523Z,0
2017-09-08T04:17:59.106Z,0
2017-09-08T04:18:59.679Z,0
2017-09-08T04:20:00.252Z,0
2017-09-08T04:21:00.825Z,0
2017-09-08T04:22:01.398Z,0
2017-09-08T04:23:01.986Z,0
2017-09-08T04:24:02.555Z,0
2017-09-08T04:25:03.129Z,0
2017-09-08T04:26:03.704Z,0
2017-09-08T04:27:04.275Z,0
2017-09-08T04:28:04.850Z,0
2017-09-08T04:29:05.420Z,0
2017-09-08T04:30:05.991Z,0
2017-09-08T04:31:06.563Z,0
2017-09-08T04:32:07.139Z,0
2017-09-08T04:33:07.710Z,0
2017-09-08T04:34:08.283Z,0
2017-09-08T04:35:08.862Z,0
2017-09-08T04:36:09.429Z,0
2017-09-08T04:37:10.002Z,0
2017-09-08T04:38:10.582Z,0
2017-09-08T04:39:11.151Z,0
2017-09-08T04:40:11.725Z,0
2017-09-08T04:41:12.299Z,0
2017-09-08T04:42:12.874Z,0
2017-09-08T04:43:13.447Z,0
2017-09-08T04:44:14.019Z,0
2017-09-08T04:45:14.604Z,0
2017-09-08T04:46:15.178Z,0
2017-09-08T04:47:15.753Z,0
2017-09-08T04:48:16.325Z,0
2017-09-08T04:49:16.901Z,0
2017-09-08T04:50:17.474Z,0
2017-09-08T04:51:18.047Z,4
2017-09-08T04:52:18.622Z,4
2017-09-08T04:53:19.193Z,4
2017-09-08T04:54:19.766Z,0
2017-09-08T04:55:20.339Z,0
2017-09-08T04:56:20.912Z,0
2017-09-08T04:57:21.483Z,4
2017-09-08T04:58:22.057Z,4
2017-09-08T04:59:22.642Z,0
2017-09-08T05:00:23.220Z,4
2017-09-08T05:01:23.800Z,8
2017-09-08T05:02:24.374Z,4
2017-09-08T05:03:24.949Z,8
2017-09-08T05:04:25.521Z,4
2017-09-08T05:05:26.096Z,4
2017-09-08T05:06:26.670Z,8
2017-09-08T05:07:27.245Z,8
2017-09-08T05:08:27.816Z,8
2017-09-08T05:09:28.390Z,12
2017-09-08T05:10:28.963Z,8
2017-09-08T05:11:29.547Z,8
2017-09-08T05:12:30.111Z,12
2017-09-08T05:13:30.715Z,12
2017-09-08T05:14:31.262Z,12
2017-09-08T05:15:31.841Z,12
2017-09-08T05:16:32.412Z,16
2017-09-08T05:17:32.996Z,12
2017-09-08T05:18:33.570Z,12
2017-09-08T05:19:34.146Z,12
2017-09-08T05:20:34.721Z,16
2017-09-08T05:21:35.295Z,16
2017-09-08T05:22:35.868Z,16
2017-09-08T05:23:36.453Z,16
2017-09-08T05:24:37.030Z,16
2017-09-08T05:25:37.603Z,16
2017-09-08T05:26:38.177Z,16
2017-09-08T05:27:38.754Z,16
2017-09-08T05:28:39.338Z,16
2017-09-08T05:29:39.913Z,20
2017-09-08T05:30:40.488Z,16
2017-09-08T05:31:41.061Z,20
2017-09-08T05:32:41.635Z,20
2017-09-08T05:33:42.224Z,20
2017-09-08T05:34:42.788Z,20
2017-09-08T05:35:43.361Z,20
2017-09-08T05:36:43.936Z,20
2017-09-08T05:37:44.510Z,24
2017-09-08T05:38:45.085Z,24
2017-09-08T05:39:45.672Z,24
2017-09-08T05:40:46.232Z,24
2017-09-08T05:41:46.808Z,24
2017-09-08T05:42:47.384Z,24
2017-09-08T05:43:47.960Z,24
2017-09-08T05:44:48.533Z,28
2017-09-08T05:45:49.109Z,32
2017-09-08T05:46:49.682Z,28
2017-09-08T05:47:50.256Z,28
2017-09-08T05:48:50.830Z,28
2017-09-08T05:49:51.403Z,28
2017-09-08T05:50:51.980Z,32
2017-09-08T05:51:52.564Z,36
2017-09-08T05:52:53.138Z,40
2017-09-08T05:53:53.711Z,44
2017-09-08T05:54:54.287Z,44
2017-09-08T05:55:54.862Z,48
2017-09-08T05:56:55.437Z,52
2017-09-08T05:57:56.013Z,52
2017-09-08T05:58:56.586Z,52
2017-09-08T05:59:57.161Z,56
2017-09-08T06:00:57.733Z,52
2017-09-08T06:01:58.307Z,48
2017-09-08T06:02:58.881Z,52
2017-09-08T06:03:59.455Z,52
2017-09-08T06:05:00.032Z,52
2017-09-08T06:06:00.607Z,60
2017-09-08T06:07:01.183Z,68
2017-09-08T06:08:01.756Z,76
2017-09-08T06:09:02.331Z,88
2017-09-08T06:10:02.905Z,96
2017-09-08T06:11:03.491Z,100
2017-09-08T06:12:04.067Z,108
2017-09-08T06:13:04.642Z,116
2017-09-08T06:14:05.218Z,128
2017-09-08T06:15:05.795Z,140
2017-09-08T06:16:06.371Z,160
2017-09-08T06:17:06.948Z,180
2017-09-08T06:18:07.524Z,180
2017-09-08T06:19:08.111Z,176
2017-09-08T06:20:08.689Z,172
2017-09-08T06:21:09.263Z,164
2017-09-08T06:22:09.837Z,152
2017-09-08T06:23:10.440Z,140
2017-09-08T06:24:10.997Z,116
2017-09-08T06:25:11.569Z,96
2017-09-08T06:26:12.141Z,84
2017-09-08T06:27:12.715Z,84
2017-09-08T06:28:13.289Z,80
2017-09-08T06:29:13.864Z,76
2017-09-08T06:30:14.440Z,80
2017-09-08T06:31:15.015Z,84
2017-09-08T06:32:15.592Z,84
2017-09-08T06:33:16.164Z,84
2017-09-08T06:34:16.740Z,88
2017-09-08T06:35:17.315Z,88
2017-09-08T06:36:17.900Z,88
2017-09-08T06:37:18.477Z,88
2017-09-08T06:38:19.050Z,84
2017-09-08T06:39:19.636Z,76
2017-09-08T06:40:20.211Z,68
2017-09-08T06:41:20.785Z,64
2017-09-08T06:42:21.360Z,60
2017-09-08T06:43:21.945Z,68
2017-09-08T06:44:22.519Z,76
2017-09-08T06:45:23.096Z,84
2017-09-08T06:46:23.670Z,88
2017-09-08T06:47:24.243Z,92
2017-09-08T06:48:24.819Z,92
2017-09-08T06:49:25.395Z,104
2017-09-08T06:50:25.971Z,104
2017-09-08T06:51:26.558Z,108
2017-09-08T06:52:27.133Z,116
2017-09-08T06:53:27.710Z,124
2017-09-08T06:54:28.285Z,140
2017-09-08T06:55:28.862Z,160
2017-09-08T06:56:29.437Z,176
2017-09-08T06:57:30.024Z,192
2017-09-08T06:58:30.600Z,220
2017-09-08T06:59:31.176Z,240
2017-09-08T07:00:31.753Z,256
2017-09-08T07:01:32.331Z,264
2017-09-08T07:02:32.908Z,260
2017-09-08T07:03:33.485Z,248
2017-09-08T07:04:34.063Z,240
2017-09-08T07:05:34.639Z,232
2017-09-08T07:06:35.221Z,224
2017-09-08T07:07:35.794Z,224
2017-09-08T07:08:36.369Z,220
2017-09-08T07:09:36.944Z,232
2017-09-08T07:10:37.521Z,248
2017-09-08T07:11:38.108Z,252
2017-09-08T07:12:38.684Z,252
2017-09-08T07:13:39.262Z,240
2017-09-08T07:14:39.840Z,228
2017-09-08T07:15:40.416Z,224
2017-09-08T07:16:40.989Z,204
2017-09-08T07:17:41.565Z,180
2017-09-08T07:18:42.143Z,152
2017-09-08T07:19:42.722Z,144
2017-09-08T07:20:43.295Z,128
2017-09-08T07:21:43.869Z,124
2017-09-08T07:22:44.444Z,132
2017-09-08T07:23:45.020Z,136
2017-09-08T07:24:45.598Z,140
2017-09-08T07:25:46.174Z,144
2017-09-08T07:26:46.750Z,152
2017-09-08T07:27:47.331Z,156
2017-09-08T07:28:47.912Z,156
2017-09-08T07:29:48.488Z,180
2017-09-08T07:30:49.062Z,188
2017-09-08T07:31:49.649Z,192
2017-09-08T07:32:50.226Z,192
2017-09-08T07:33:50.801Z,188
2017-09-08T07:34:51.386Z,176
2017-09-08T07:35:51.962Z,184
2017-09-08T07:36:52.548Z,204
2017-09-08T07:37:53.124Z,176
2017-09-08T07:38:53.711Z,192
2017-09-08T07:39:54.298Z,184
2017-09-08T07:40:54.871Z,164
2017-09-08T07:41:55.444Z,148
2017-09-08T07:42:56.019Z,148
2017-09-08T07:43:56.606Z,148
2017-09-08T07:44:57.182Z,152
2017-09-08T07:45:57.757Z,148
2017-09-08T07:46:58.344Z,144
2017-09-08T07:47:58.919Z,140
2017-09-08T07:48:59.495Z,152
2017-09-08T07:50:00.072Z,148
2017-09-08T07:51:00.649Z,168
2017-09-08T07:52:01.227Z,172
2017-09-08T07:53:01.804Z,152
2017-09-08T07:54:02.378Z,140
2017-09-08T07:55:02.955Z,152
2017-09-08T07:56:03.532Z,160
2017-09-08T07:57:04.106Z,184
2017-09-08T07:58:04.683Z,196
2017-09-08T07:59:05.259Z,180
2017-09-08T08:00:05.833Z,152
2017-09-08T08:01:06.412Z,132
2017-09-08T08:02:06.993Z,132
2017-09-08T08:03:07.564Z,148
2017-09-08T08:04:08.139Z,148
2017-09-08T08:05:08.713Z,156
2017-09-08T08:06:09.287Z,172
2017-09-08T08:07:09.864Z,188
2017-09-08T08:08:10.452Z,184
2017-09-08T08:09:11.036Z,188
2017-09-08T08:10:11.610Z,192
2017-09-08T08:11:12.186Z,164
2017-09-08T08:12:12.760Z,140
2017-09-08T08:13:13.335Z,116
2017-09-08T08:14:13.920Z,116
2017-09-08T08:15:14.495Z,108
2017-09-08T08:16:15.071Z,100
2017-09-08T08:17:15.646Z,100
2017-09-08T08:18:16.221Z,104
2017-09-08T08:19:16.797Z,116
2017-09-08T08:20:17.374Z,124
2017-09-08T08:21:17.952Z,128
2017-09-08T08:22:18.527Z,140
2017-09-08T08:23:19.102Z,140
2017-09-08T08:24:19.680Z,132
2017-09-08T08:25:20.257Z,152
2017-09-08T08:26:20.832Z,188
2017-09-08T08:27:21.410Z,212
2017-09-08T08:28:21.983Z,216
2017-09-08T08:29:22.559Z,228
2017-09-08T08:30:23.137Z,228
2017-09-08T08:31:23.715Z,224
2017-09-08T08:32:24.292Z,240
2017-09-08T08:33:24.868Z,224
2017-09-08T08:34:25.443Z,216
2017-09-08T08:35:26.018Z,212
2017-09-08T08:36:26.596Z,196
2017-09-08T08:37:27.171Z,176
2017-09-08T08:38:27.753Z,188
2017-09-08T08:39:28.322Z,204
2017-09-08T08:40:28.898Z,204
2017-09-08T08:41:29.474Z,192
2017-09-08T08:42:30.053Z,200
2017-09-08T08:43:30.630Z,200
2017-09-08T08:44:31.206Z,192
2017-09-08T08:45:31.781Z,188
2017-09-08T08:46:32.354Z,188
2017-09-08T08:47:32.930Z,216
2017-09-08T08:48:33.508Z,180
2017-09-08T08:49:34.084Z,168
2017-09-08T08:50:34.661Z,176
2017-09-08T08:51:35.236Z,188
2017-09-08T08:52:35.813Z,180
2017-09-08T08:53:36.390Z,192
2017-09-08T08:54:36.977Z,248
2017-09-08T08:55:37.554Z,296
2017-09-08T08:56:38.133Z,336
2017-09-08T08:57:38.709Z,352
2017-09-08T08:58:39.285Z,328
2017-09-08T08:59:39.862Z,276
2017-09-08T09:00:40.439Z,288
2017-09-08T09:01:41.025Z,340
2017-09-08T09:02:41.617Z,380
2017-09-08T09:03:42.190Z,396
2017-09-08T09:04:42.768Z,392
2017-09-08T09:05:43.346Z,352
2017-09-08T09:06:43.924Z,280
2017-09-08T09:07:44.507Z,256
2017-09-08T09:08:45.076Z,328
2017-09-08T09:09:45.655Z,376
2017-09-08T09:10:46.233Z,356
2017-09-08T09:11:46.809Z,296
2017-09-08T09:12:47.386Z,304
2017-09-08T09:13:47.965Z,328
2017-09-08T09:14:48.542Z,332
2017-09-08T09:15:49.119Z,312
2017-09-08T09:16:49.696Z,260
2017-09-08T09:17:50.284Z,244
2017-09-08T09:18:50.859Z,216
2017-09-08T09:19:51.435Z,216
2017-09-08T09:20:52.023Z,200
2017-09-08T09:21:52.599Z,196
2017-09-08T09:22:53.174Z,184
2017-09-08T09:23:53.751Z,188
2017-09-08T09:24:54.332Z,196
2017-09-08T09:25:54.903Z,196
2017-09-08T09:26:55.482Z,224
2017-09-08T09:27:56.058Z,260
2017-09-08T09:28:56.649Z,296
2017-09-08T09:29:57.215Z,296
2017-09-08T09:30:57.792Z,332
2017-09-08T09:31:58.368Z,304
2017-09-08T09:32:58.945Z,280
2017-09-08T09:33:59.522Z,280
2017-09-08T09:35:00.101Z,200
2017-09-08T09:36:00.676Z,204
2017-09-08T09:37:01.263Z,200
2017-09-08T09:38:01.841Z,216
2017-09-08T09:39:02.416Z,216
2017-09-08T09:40:02.992Z,240
2017-09-08T09:41:03.572Z,268
2017-09-08T09:42:04.147Z,240
2017-09-08T09:43:04.723Z,292
2017-09-08T09:44:05.301Z,344
2017-09-08T09:45:05.877Z,288
2017-09-08T09:46:06.454Z,332
2017-09-08T09:47:07.032Z,376
2017-09-08T09:48:07.609Z,348
2017-09-08T09:49:08.185Z,272
2017-09-08T09:50:08.762Z,212
2017-09-08T09:51:09.339Z,260
2017-09-08T09:52:09.917Z,276
2017-09-08T09:53:10.498Z,308
2017-09-08T09:54:11.067Z,252
2017-09-08T09:55:11.645Z,192
2017-09-08T09:56:12.221Z,180
2017-09-08T09:57:12.797Z,176
2017-09-08T09:58:13.373Z,188
2017-09-08T09:59:13.960Z,148
2017-09-08T10:00:14.535Z,104
2017-09-08T10:01:15.110Z,104
2017-09-08T10:02:15.689Z,128
2017-09-08T10:03:16.258Z,164
2017-09-08T10:04:16.833Z,176
2017-09-08T10:05:17.409Z,176
2017-09-08T10:06:17.987Z,160
2017-09-08T10:07:18.561Z,168
2017-09-08T10:08:19.137Z,220
2017-09-08T10:09:19.715Z,276
2017-09-08T10:10:20.290Z,300
2017-09-08T10:11:20.867Z,352
2017-09-08T10:12:21.445Z,400
2017-09-08T10:13:22.022Z,460
2017-09-08T10:14:22.597Z,364
2017-09-08T10:15:23.174Z,280
2017-09-08T10:16:23.753Z,304
2017-09-08T10:17:24.330Z,296
2017-09-08T10:18:24.907Z,288
2017-09-08T10:19:25.484Z,352
2017-09-08T10:20:26.060Z,352
2017-09-08T10:21:26.638Z,316
2017-09-08T10:22:27.217Z,368
2017-09-08T10:23:27.789Z,432
2017-09-08T10:24:28.365Z,432
2017-09-08T10:25:28.944Z,416
2017-09-08T10:26:29.522Z,512
2017-09-08T10:27:30.102Z,580
2017-09-08T10:28:30.675Z,616
2017-09-08T10:29:31.254Z,640
2017-09-08T10:30:31.829Z,684
2017-09-08T10:31:32.405Z,648
2017-09-08T10:32:32.981Z,592
2017-09-08T10:33:33.557Z,568
2017-09-08T10:34:34.136Z,552
2017-09-08T10:35:34.713Z,552
2017-09-08T10:36:35.289Z,528
2017-09-08T10:37:35.866Z,472
2017-09-08T10:38:36.444Z,440
2017-09-08T10:39:37.022Z,440
2017-09-08T10:40:37.599Z,456
2017-09-08T10:41:38.175Z,444
2017-09-08T10:42:38.752Z,392
2017-09-08T10:43:39.329Z,320
2017-09-08T10:44:39.908Z,292
2017-09-08T10:45:40.484Z,332
2017-09-08T10:46:41.062Z,348
2017-09-08T10:47:41.639Z,372
2017-09-08T10:48:42.214Z,332
2017-09-08T10:49:42.794Z,312
2017-09-08T10:50:43.372Z,312
2017-09-08T10:51:43.947Z,320
2017-09-08T10:52:44.526Z,336
2017-09-08T10:53:45.102Z,340
2017-09-08T10:54:45.685Z,392
2017-09-08T10:55:46.257Z,440
2017-09-08T10:56:46.833Z,360
2017-09-08T10:57:47.412Z,276
2017-09-08T10:58:47.989Z,252
2017-09-08T10:59:48.565Z,276
2017-09-08T11:00:49.142Z,288
2017-09-08T11:01:49.718Z,280
2017-09-08T11:02:50.296Z,288
2017-09-08T11:03:50.874Z,260
2017-09-08T11:04:51.451Z,232
2017-09-08T11:05:52.028Z,256
2017-09-08T11:06:52.604Z,256
2017-09-08T11:07:53.183Z,244
2017-09-08T11:08:53.761Z,272
2017-09-08T11:09:54.338Z,236
2017-09-08T11:10:54.915Z,248
2017-09-08T11:11:55.495Z,288
2017-09-08T11:12:56.073Z,248
2017-09-08T11:13:56.649Z,232
2017-09-08T11:14:57.226Z,228
2017-09-08T11:15:57.801Z,196
2017-09-08T11:16:58.377Z,176
2017-09-08T11:17:58.964Z,172
2017-09-08T11:18:59.552Z,184
2017-09-08T11:20:00.128Z,184
2017-09-08T11:21:00.704Z,192
2017-09-08T11:22:01.279Z,216
2017-09-08T11:23:01.868Z,248
2017-09-08T11:24:02.456Z,240
2017-09-08T11:25:03.035Z,188
2017-09-08T11:26:03.611Z,168
2017-09-08T11:27:04.197Z,152
2017-09-08T11:28:04.775Z,128
2017-09-08T11:29:05.351Z,148
2017-09-08T11:30:05.927Z,164
2017-09-08T11:31:06.505Z,188
2017-09-08T11:32:07.082Z,216
2017-09-08T11:33:07.660Z,220
2017-09-08T11:34:08.236Z,228
2017-09-08T11:35:08.816Z,220
2017-09-08T11:36:09.387Z,204
2017-09-08T11:37:09.964Z,220
2017-09-08T11:38:10.542Z,216
2017-09-08T11:39:11.118Z,232
2017-09-08T11:40:11.695Z,192
2017-09-08T11:41:12.270Z,172
2017-09-08T11:42:12.847Z,140
2017-09-08T11:43:13.426Z,128
2017-09-08T11:44:14.001Z,116
2017-09-08T11:45:14.587Z,104
2017-09-08T11:46:15.165Z,100
2017-09-08T11:47:15.752Z,116
2017-09-08T11:48:16.328Z,140
2017-09-08T11:49:16.905Z,188
2017-09-08T11:50:17.492Z,184
2017-09-08T11:51:18.068Z,172
2017-09-08T11:52:18.647Z,144
2017-09-08T11:53:19.222Z,156
2017-09-08T11:54:19.798Z,168
2017-09-08T11:55:20.373Z,248
2017-09-08T11:56:20.951Z,204
2017-09-08T11:57:21.528Z,216
2017-09-08T11:58:22.103Z,232
2017-09-08T11:59:22.680Z,236
2017-09-08T12:00:23.256Z,188
2017-09-08T12:01:23.833Z,156
2017-09-08T12:02:24.411Z,144
2017-09-08T12:03:24.986Z,124
2017-09-08T12:04:25.563Z,128
2017-09-08T12:05:26.140Z,148
2017-09-08T12:06:26.715Z,156
2017-09-08T12:07:27.302Z,128
2017-09-08T12:08:27.878Z,160
2017-09-08T12:09:28.454Z,176
2017-09-08T12:10:29.031Z,168
2017-09-08T12:11:29.608Z,156
2017-09-08T12:12:30.185Z,172
2017-09-08T12:13:30.772Z,196
2017-09-08T12:14:31.348Z,220
2017-09-08T12:15:31.926Z,204
2017-09-08T12:16:32.513Z,228
2017-09-08T12:17:33.090Z,268
2017-09-08T12:18:33.669Z,324
2017-09-08T12:19:34.255Z,312
2017-09-08T12:20:34.831Z,272
2017-09-08T12:21:35.405Z,236
2017-09-08T12:22:35.981Z,216
2017-09-08T12:23:36.569Z,188
2017-09-08T12:24:37.146Z,216
2017-09-08T12:25:37.721Z,200
2017-09-08T12:26:38.297Z,208
2017-09-08T12:27:38.876Z,184
2017-09-08T12:28:39.452Z,188
2017-09-08T12:29:40.028Z,184
2017-09-08T12:30:40.604Z,196
2017-09-08T12:31:41.182Z,196
2017-09-08T12:32:41.760Z,196
2017-09-08T12:33:42.335Z,160
2017-09-08T12:34:42.912Z,164
2017-09-08T12:35:43.486Z,176
2017-09-08T12:36:44.063Z,156
2017-09-08T12:37:44.640Z,144
2017-09-08T12:38:45.217Z,148
2017-09-08T12:39:45.795Z,156
2017-09-08T12:40:46.370Z,172
2017-09-08T12:41:46.945Z,228
2017-09-08T12:42:47.520Z,208
2017-09-08T12:43:48.097Z,220
2017-09-08T12:44:48.674Z,220
2017-09-08T12:45:49.250Z,204
2017-09-08T12:46:49.827Z,196
2017-09-08T12:47:50.414Z,204
2017-09-08T12:48:50.988Z,208
2017-09-08T12:49:51.565Z,232
2017-09-08T12:50:52.142Z,232
2017-09-08T12:51:52.720Z,236
2017-09-08T12:52:53.300Z,240
2017-09-08T12:53:53.875Z,224
2017-09-08T12:54:54.451Z,232
2017-09-08T12:55:55.028Z,208
2017-09-08T12:56:55.614Z,196
2017-09-08T12:57:56.191Z,236
2017-09-08T12:58:56.766Z,232
2017-09-08T12:59:57.343Z,216
2017-09-08T13:00:57.919Z,228
2017-09-08T13:01:58.494Z,228
2017-09-08T13:02:59.075Z,240
2017-09-08T13:03:59.661Z,248
2017-09-08T13:05:00.238Z,244
2017-09-08T13:06:00.814Z,232
2017-09-08T13:07:01.402Z,248
2017-09-08T13:08:01.978Z,224
2017-09-08T13:09:02.554Z,224
2017-09-08T13:10:03.143Z,260
2017-09-08T13:11:03.729Z,228
2017-09-08T13:12:04.306Z,248
2017-09-08T13:13:04.885Z,300
2017-09-08T13:14:05.464Z,268
2017-09-08T13:15:06.039Z,244
2017-09-08T13:16:06.617Z,288
2017-09-08T13:17:07.195Z,320
2017-09-08T13:18:07.771Z,304
2017-09-08T13:19:08.347Z,240
2017-09-08T13:20:08.935Z,232
2017-09-08T13:21:09.511Z,224
2017-09-08T13:22:10.089Z,212
2017-09-08T13:23:10.665Z,220
2017-09-08T13:24:11.242Z,216
2017-09-08T13:25:11.820Z,268
2017-09-08T13:26:12.396Z,312
2017-09-08T13:27:12.985Z,316
2017-09-08T13:28:13.573Z,320
2017-09-08T13:29:14.148Z,312
2017-09-08T13:30:14.725Z,300
2017-09-08T13:31:15.302Z,276
2017-09-08T13:32:15.880Z,312
2017-09-08T13:33:16.458Z,324
2017-09-08T13:34:17.035Z,304
2017-09-08T13:35:17.632Z,288
2017-09-08T13:36:18.209Z,336
2017-09-08T13:37:18.821Z,264
2017-09-08T13:38:19.432Z,260
2017-09-08T13:39:20.369Z,276
2017-09-08T13:40:20.999Z,248
2017-09-08T13:41:21.591Z,232
2017-09-08T13:42:22.207Z,280
2017-09-08T13:43:22.775Z,284
2017-09-08T13:44:23.352Z,264
2017-09-08T13:45:23.930Z,276
2017-09-08T13:46:24.519Z,248
2017-09-08T13:47:25.095Z,200
2017-09-08T13:48:25.671Z,196
2017-09-08T13:49:26.247Z,224
2017-09-08T13:50:26.824Z,256
2017-09-08T13:51:27.402Z,268
2017-09-08T13:52:27.979Z,272
2017-09-08T13:53:28.559Z,252
2017-09-08T13:54:29.135Z,268
2017-09-08T13:55:29.712Z,236
2017-09-08T13:56:30.293Z,252
2017-09-08T13:57:30.869Z,260
2017-09-08T13:58:31.457Z,240
2017-09-08T13:59:32.049Z,256
2017-09-08T14:00:32.624Z,228
2017-09-08T14:01:33.200Z,200
2017-09-08T14:02:33.777Z,184
2017-09-08T14:03:34.353Z,184
2017-09-08T14:04:34.930Z,140
2017-09-08T14:05:35.509Z,120
2017-09-08T14:06:36.084Z,128
2017-09-08T14:07:36.661Z,152
2017-09-08T14:08:37.238Z,136
2017-09-08T14:09:37.813Z,128
2017-09-08T14:10:38.391Z,144
2017-09-08T14:11:38.969Z,164
2017-09-08T14:12:39.546Z,192
2017-09-08T14:13:40.134Z,180
2017-09-08T14:14:40.721Z,164
2017-09-08T14:15:41.298Z,172
2017-09-08T14:16:41.875Z,208
2017-09-08T14:17:42.452Z,200
2017-09-08T14:18:43.028Z,204